sensor_id;sensor_type;location;lat;lon;timestamp;temperature;humidity
7232;DHT22;3657;49.630;11.018;2023-05-10T00:01:46;18.90;65.80
7232;DHT22;3657;49.630;11.018;2023-05-10T00:04:13;18.90;66.20
7232;DHT22;3657;49.630;11.018;2023-05-10T00:06:39;18.90;66.60
7232;DHT22;3657;49.630;11.018;2023-05-10T00:09:06;18.90;67.90
7232;DHT22;3657;49.630;11.018;2023-05-10T00:11:33;18.80;68.30
7232;DHT22;3657;49.630;11.018;2023-05-10T00:13:59;18.80;67.50
7232;DHT22;3657;49.630;11.018;2023-05-10T00:16:27;18.80;68.70
7232;DHT22;3657;49.630;11.018;2023-05-10T00:18:54;18.80;67.60
7232;DHT22;3657;49.630;11.018;2023-05-10T00:21:21;18.80;68.00
7232;DHT22;3657;49.630;11.018;2023-05-10T00:23:48;18.80;69.40
7232;DHT22;3657;49.630;11.018;2023-05-10T00:26:14;18.80;68.60
7232;DHT22;3657;49.630;11.018;2023-05-10T00:28:42;18.80;68.80
7232;DHT22;3657;49.630;11.018;2023-05-10T00:31:08;18.80;69.10
7232;DHT22;3657;49.630;11.018;2023-05-10T00:33:36;18.80;69.40
7232;DHT22;3657;49.630;11.018;2023-05-10T00:36:03;18.70;70.30
7232;DHT22;3657;49.630;11.018;2023-05-10T00:38:33;18.60;72.40
7232;DHT22;3657;49.630;11.018;2023-05-10T00:40:59;18.50;74.30
7232;DHT22;3657;49.630;11.018;2023-05-10T00:43:26;18.40;77.30
7232;DHT22;3657;49.630;11.018;2023-05-10T00:45:53;18.50;72.50
7232;DHT22;3657;49.630;11.018;2023-05-10T00:48:21;18.50;72.50
7232;DHT22;3657;49.630;11.018;2023-05-10T00:50:49;18.40;73.00
7232;DHT22;3657;49.630;11.018;2023-05-10T00:53:16;18.40;76.00
7232;DHT22;3657;49.630;11.018;2023-05-10T00:55:43;18.30;76.50
7232;DHT22;3657;49.630;11.018;2023-05-10T00:58:10;18.30;75.90
7232;DHT22;3657;49.630;11.018;2023-05-10T01:00:38;18.00;81.00
7232;DHT22;3657;49.630;11.018;2023-05-10T01:03:08;17.90;77.30
7232;DHT22;3657;49.630;11.018;2023-05-10T01:05:34;17.90;76.60
7232;DHT22;3657;49.630;11.018;2023-05-10T01:08:03;18.00;75.80
7232;DHT22;3657;49.630;11.018;2023-05-10T01:10:30;18.10;75.70
7232;DHT22;3657;49.630;11.018;2023-05-10T01:12:57;18.20;75.60
7232;DHT22;3657;49.630;11.018;2023-05-10T01:15:26;18.10;79.80
7232;DHT22;3657;49.630;11.018;2023-05-10T01:17:53;18.10;81.10
7232;DHT22;3657;49.630;11.018;2023-05-10T01:20:20;17.90;79.00
7232;DHT22;3657;49.630;11.018;2023-05-10T01:23:27;18.00;77.60
7232;DHT22;3657;49.630;11.018;2023-05-10T01:26:13;18.00;80.20
7232;DHT22;3657;49.630;11.018;2023-05-10T01:29:13;18.00;77.10
7232;DHT22;3657;49.630;11.018;2023-05-10T01:32:16;18.00;76.80
7232;DHT22;3657;49.630;11.018;2023-05-10T01:34:51;18.10;76.70
7232;DHT22;3657;49.630;11.018;2023-05-10T01:37:23;18.10;76.60
7232;DHT22;3657;49.630;11.018;2023-05-10T01:39:57;18.20;76.70
7232;DHT22;3657;49.630;11.018;2023-05-10T01:42:29;18.20;76.80
7232;DHT22;3657;49.630;11.018;2023-05-10T01:45:07;18.10;76.80
7232;DHT22;3657;49.630;11.018;2023-05-10T01:47:40;18.10;76.90
7232;DHT22;3657;49.630;11.018;2023-05-10T01:50:13;18.10;77.10
7232;DHT22;3657;49.630;11.018;2023-05-10T01:52:42;18.10;77.20
7232;DHT22;3657;49.630;11.018;2023-05-10T01:55:14;18.10;77.40
7232;DHT22;3657;49.630;11.018;2023-05-10T01:57:44;18.10;77.40
7232;DHT22;3657;49.630;11.018;2023-05-10T02:00:12;18.10;77.60
7232;DHT22;3657;49.630;11.018;2023-05-10T02:02:44;18.10;77.70
7232;DHT22;3657;49.630;11.018;2023-05-10T02:05:12;18.00;77.90
7232;DHT22;3657;49.630;11.018;2023-05-10T02:07:40;18.00;77.90
7232;DHT22;3657;49.630;11.018;2023-05-10T02:10:09;18.00;78.20
7232;DHT22;3657;49.630;11.018;2023-05-10T02:12:37;18.00;78.30
7232;DHT22;3657;49.630;11.018;2023-05-10T02:15:06;18.00;78.50
7232;DHT22;3657;49.630;11.018;2023-05-10T02:17:35;17.90;78.50
7232;DHT22;3657;49.630;11.018;2023-05-10T02:20:06;17.90;78.70
7232;DHT22;3657;49.630;11.018;2023-05-10T02:22:35;17.90;78.80
7232;DHT22;3657;49.630;11.018;2023-05-10T02:25:03;17.80;78.80
7232;DHT22;3657;49.630;11.018;2023-05-10T02:27:30;17.90;79.00
7232;DHT22;3657;49.630;11.018;2023-05-10T02:29:58;17.80;80.10
7232;DHT22;3657;49.630;11.018;2023-05-10T02:32:26;17.90;82.70
7232;DHT22;3657;49.630;11.018;2023-05-10T02:34:54;17.80;80.00
7232;DHT22;3657;49.630;11.018;2023-05-10T02:37:24;17.70;84.80
7232;DHT22;3657;49.630;11.018;2023-05-10T02:39:54;17.70;82.60
7232;DHT22;3657;49.630;11.018;2023-05-10T02:42:24;17.70;84.00
7232;DHT22;3657;49.630;11.018;2023-05-10T02:44:55;17.70;84.00
7232;DHT22;3657;49.630;11.018;2023-05-10T02:47:23;17.60;85.20
7232;DHT22;3657;49.630;11.018;2023-05-10T02:49:49;17.60;87.40
7232;DHT22;3657;49.630;11.018;2023-05-10T02:52:21;17.60;86.80
7232;DHT22;3657;49.630;11.018;2023-05-10T02:54:54;17.50;91.40
7232;DHT22;3657;49.630;11.018;2023-05-10T02:57:25;17.50;87.00
7232;DHT22;3657;49.630;11.018;2023-05-10T02:59:52;17.40;85.70
7232;DHT22;3657;49.630;11.018;2023-05-10T03:02:20;17.40;86.00
7232;DHT22;3657;49.630;11.018;2023-05-10T03:04:46;17.40;86.50
7232;DHT22;3657;49.630;11.018;2023-05-10T03:07:13;17.40;85.50
7232;DHT22;3657;49.630;11.018;2023-05-10T03:09:40;17.40;85.90
7232;DHT22;3657;49.630;11.018;2023-05-10T03:12:14;17.40;85.50
7232;DHT22;3657;49.630;11.018;2023-05-10T03:17:41;17.40;85.10
7232;DHT22;3657;49.630;11.018;2023-05-10T03:20:19;17.40;84.90
7232;DHT22;3657;49.630;11.018;2023-05-10T03:22:51;17.40;84.90
7232;DHT22;3657;49.630;11.018;2023-05-10T03:25:21;17.40;85.00
7232;DHT22;3657;49.630;11.018;2023-05-10T03:27:49;17.40;85.50
7232;DHT22;3657;49.630;11.018;2023-05-10T03:30:18;17.40;85.80
7232;DHT22;3657;49.630;11.018;2023-05-10T03:32:46;17.40;85.90
7232;DHT22;3657;49.630;11.018;2023-05-10T03:35:13;17.30;85.60
7232;DHT22;3657;49.630;11.018;2023-05-10T03:37:39;17.30;85.70
7232;DHT22;3657;49.630;11.018;2023-05-10T03:40:07;17.30;86.30
7232;DHT22;3657;49.630;11.018;2023-05-10T03:42:34;17.30;88.80
7232;DHT22;3657;49.630;11.018;2023-05-10T03:45:02;17.30;87.70
7232;DHT22;3657;49.630;11.018;2023-05-10T03:47:29;17.20;87.00
7232;DHT22;3657;49.630;11.018;2023-05-10T03:49:56;17.20;86.70
7232;DHT22;3657;49.630;11.018;2023-05-10T03:52:22;17.20;86.60
7232;DHT22;3657;49.630;11.018;2023-05-10T03:54:49;17.20;87.40
7232;DHT22;3657;49.630;11.018;2023-05-10T03:57:16;17.20;86.60
7232;DHT22;3657;49.630;11.018;2023-05-10T03:59:42;17.30;86.40
7232;DHT22;3657;49.630;11.018;2023-05-10T04:02:10;17.20;86.50
7232;DHT22;3657;49.630;11.018;2023-05-10T04:04:37;17.20;86.60
7232;DHT22;3657;49.630;11.018;2023-05-10T04:07:04;17.20;86.80
7232;DHT22;3657;49.630;11.018;2023-05-10T04:09:30;17.20;86.70
7232;DHT22;3657;49.630;11.018;2023-05-10T04:11:58;17.10;86.60
7232;DHT22;3657;49.630;11.018;2023-05-10T04:14:25;17.10;87.70
7232;DHT22;3657;49.630;11.018;2023-05-10T04:16:52;17.10;86.90
7232;DHT22;3657;49.630;11.018;2023-05-10T04:19:20;17.20;87.30
7232;DHT22;3657;49.630;11.018;2023-05-10T04:21:46;17.10;87.70
7232;DHT22;3657;49.630;11.018;2023-05-10T04:24:13;17.10;87.10
7232;DHT22;3657;49.630;11.018;2023-05-10T04:26:40;17.10;87.20
7232;DHT22;3657;49.630;11.018;2023-05-10T04:29:06;17.10;87.70
7232;DHT22;3657;49.630;11.018;2023-05-10T04:31:33;17.00;87.60
7232;DHT22;3657;49.630;11.018;2023-05-10T04:34:01;17.00;87.60
7232;DHT22;3657;49.630;11.018;2023-05-10T04:36:29;17.00;91.50
7232;DHT22;3657;49.630;11.018;2023-05-10T04:38:57;16.90;89.10
7232;DHT22;3657;49.630;11.018;2023-05-10T04:41:24;16.90;91.30
7232;DHT22;3657;49.630;11.018;2023-05-10T04:43:51;16.90;89.60
7232;DHT22;3657;49.630;11.018;2023-05-10T04:46:17;16.90;90.50
7232;DHT22;3657;49.630;11.018;2023-05-10T04:48:44;16.80;89.70
7232;DHT22;3657;49.630;11.018;2023-05-10T04:51:11;16.90;89.80
7232;DHT22;3657;49.630;11.018;2023-05-10T04:53:39;16.90;89.70
7232;DHT22;3657;49.630;11.018;2023-05-10T04:56:06;16.90;90.10
7232;DHT22;3657;49.630;11.018;2023-05-10T04:58:33;16.80;91.50
7232;DHT22;3657;49.630;11.018;2023-05-10T05:01:05;16.80;90.10
7232;DHT22;3657;49.630;11.018;2023-05-10T05:03:32;16.80;90.30
7232;DHT22;3657;49.630;11.018;2023-05-10T05:05:59;16.80;90.30
7232;DHT22;3657;49.630;11.018;2023-05-10T05:08:27;16.80;90.70
7232;DHT22;3657;49.630;11.018;2023-05-10T05:10:55;16.70;90.90
7232;DHT22;3657;49.630;11.018;2023-05-10T05:13:22;16.70;91.70
7232;DHT22;3657;49.630;11.018;2023-05-10T05:15:49;16.60;91.40
7232;DHT22;3657;49.630;11.018;2023-05-10T05:18:15;16.70;91.60
7232;DHT22;3657;49.630;11.018;2023-05-10T05:20:42;16.60;91.20
7232;DHT22;3657;49.630;11.018;2023-05-10T05:23:09;16.60;91.00
7232;DHT22;3657;49.630;11.018;2023-05-10T05:25:35;16.60;91.10
7232;DHT22;3657;49.630;11.018;2023-05-10T05:28:04;16.70;90.80
7232;DHT22;3657;49.630;11.018;2023-05-10T05:30:30;16.70;90.80
7232;DHT22;3657;49.630;11.018;2023-05-10T05:32:57;16.70;90.80
7232;DHT22;3657;49.630;11.018;2023-05-10T05:35:24;16.70;91.40
7232;DHT22;3657;49.630;11.018;2023-05-10T05:37:51;16.70;91.00
7232;DHT22;3657;49.630;11.018;2023-05-10T05:40:18;16.70;90.90
7232;DHT22;3657;49.630;11.018;2023-05-10T05:42:45;16.70;91.00
7232;DHT22;3657;49.630;11.018;2023-05-10T05:45:13;16.70;92.60
7232;DHT22;3657;49.630;11.018;2023-05-10T05:47:40;16.70;91.40
7232;DHT22;3657;49.630;11.018;2023-05-10T05:50:08;16.70;91.70
7232;DHT22;3657;49.630;11.018;2023-05-10T05:52:35;16.70;91.40
7232;DHT22;3657;49.630;11.018;2023-05-10T05:55:01;16.70;91.40
7232;DHT22;3657;49.630;11.018;2023-05-10T05:57:29;16.70;92.30
7232;DHT22;3657;49.630;11.018;2023-05-10T05:59:55;16.70;91.80
7232;DHT22;3657;49.630;11.018;2023-05-10T06:02:23;16.70;92.80
7232;DHT22;3657;49.630;11.018;2023-05-10T06:04:50;16.70;92.00
7232;DHT22;3657;49.630;11.018;2023-05-10T06:07:17;16.70;91.40
7232;DHT22;3657;49.630;11.018;2023-05-10T06:09:43;16.70;92.20
7232;DHT22;3657;49.630;11.018;2023-05-10T06:12:10;16.70;91.40
7232;DHT22;3657;49.630;11.018;2023-05-10T06:14:38;16.70;92.30
7232;DHT22;3657;49.630;11.018;2023-05-10T06:17:04;16.70;91.60
7232;DHT22;3657;49.630;11.018;2023-05-10T06:19:33;16.80;91.60
7232;DHT22;3657;49.630;11.018;2023-05-10T06:22:00;16.80;91.70
7232;DHT22;3657;49.630;11.018;2023-05-10T06:24:26;16.80;91.90
7232;DHT22;3657;49.630;11.018;2023-05-10T06:26:53;16.80;91.90
7232;DHT22;3657;49.630;11.018;2023-05-10T06:29:20;16.80;92.40
7232;DHT22;3657;49.630;11.018;2023-05-10T06:31:47;16.80;91.90
7232;DHT22;3657;49.630;11.018;2023-05-10T06:34:13;16.80;92.20
7232;DHT22;3657;49.630;11.018;2023-05-10T06:36:41;16.80;93.00
7232;DHT22;3657;49.630;11.018;2023-05-10T06:39:08;16.80;92.40
7232;DHT22;3657;49.630;11.018;2023-05-10T06:41:37;16.80;92.80
7232;DHT22;3657;49.630;11.018;2023-05-10T06:44:04;16.80;92.40
7232;DHT22;3657;49.630;11.018;2023-05-10T06:46:30;16.90;92.40
7232;DHT22;3657;49.630;11.018;2023-05-10T06:48:57;16.90;93.00
7232;DHT22;3657;49.630;11.018;2023-05-10T06:51:24;17.00;94.30
7232;DHT22;3657;49.630;11.018;2023-05-10T06:53:52;17.00;93.30
7232;DHT22;3657;49.630;11.018;2023-05-10T06:56:18;17.00;92.40
7232;DHT22;3657;49.630;11.018;2023-05-10T06:58:46;17.00;93.60
7232;DHT22;3657;49.630;11.018;2023-05-10T07:01:13;17.10;92.70
7232;DHT22;3657;49.630;11.018;2023-05-10T07:03:40;17.10;93.10
7232;DHT22;3657;49.630;11.018;2023-05-10T07:06:07;17.00;94.10
7232;DHT22;3657;49.630;11.018;2023-05-10T07:08:34;17.00;94.00
7232;DHT22;3657;49.630;11.018;2023-05-10T07:11:03;17.00;94.40
7232;DHT22;3657;49.630;11.018;2023-05-10T07:13:30;17.10;93.60
7232;DHT22;3657;49.630;11.018;2023-05-10T07:15:57;17.10;93.90
7232;DHT22;3657;49.630;11.018;2023-05-10T07:18:24;17.20;93.60
7232;DHT22;3657;49.630;11.018;2023-05-10T07:20:51;17.20;93.90
7232;DHT22;3657;49.630;11.018;2023-05-10T07:23:18;17.40;94.00
7232;DHT22;3657;49.630;11.018;2023-05-10T07:25:45;17.40;94.00
7232;DHT22;3657;49.630;11.018;2023-05-10T07:28:14;17.40;94.20
7232;DHT22;3657;49.630;11.018;2023-05-10T07:30:42;17.50;94.50
7232;DHT22;3657;49.630;11.018;2023-05-10T07:33:10;17.50;94.50
7232;DHT22;3657;49.630;11.018;2023-05-10T07:35:37;17.50;95.00
7232;DHT22;3657;49.630;11.018;2023-05-10T07:38:04;17.60;94.60
7232;DHT22;3657;49.630;11.018;2023-05-10T07:40:31;17.60;95.10
7232;DHT22;3657;49.630;11.018;2023-05-10T07:42:58;17.70;94.90
7232;DHT22;3657;49.630;11.018;2023-05-10T07:45:28;17.70;95.30
7232;DHT22;3657;49.630;11.018;2023-05-10T07:47:55;17.60;95.60
7232;DHT22;3657;49.630;11.018;2023-05-10T07:50:21;17.60;95.60
7232;DHT22;3657;49.630;11.018;2023-05-10T07:52:48;17.60;95.60
7232;DHT22;3657;49.630;11.018;2023-05-10T07:55:15;17.60;95.90
7232;DHT22;3657;49.630;11.018;2023-05-10T07:57:42;17.60;96.00
7232;DHT22;3657;49.630;11.018;2023-05-10T08:00:11;17.60;96.00
7232;DHT22;3657;49.630;11.018;2023-05-10T08:02:40;17.60;95.90
7232;DHT22;3657;49.630;11.018;2023-05-10T08:05:07;17.70;95.90
7232;DHT22;3657;49.630;11.018;2023-05-10T08:07:34;17.60;96.10
7232;DHT22;3657;49.630;11.018;2023-05-10T08:10:01;17.70;96.20
7232;DHT22;3657;49.630;11.018;2023-05-10T08:12:28;17.70;96.00
7232;DHT22;3657;49.630;11.018;2023-05-10T08:14:55;17.70;96.20
7232;DHT22;3657;49.630;11.018;2023-05-10T08:17:22;17.70;96.10
7232;DHT22;3657;49.630;11.018;2023-05-10T08:19:50;17.70;96.00
7232;DHT22;3657;49.630;11.018;2023-05-10T08:22:17;17.70;95.80
7232;DHT22;3657;49.630;11.018;2023-05-10T08:24:43;17.80;96.10
7232;DHT22;3657;49.630;11.018;2023-05-10T08:27:10;17.80;96.00
7232;DHT22;3657;49.630;11.018;2023-05-10T08:29:37;17.80;96.20
7232;DHT22;3657;49.630;11.018;2023-05-10T08:32:04;17.80;95.90
7232;DHT22;3657;49.630;11.018;2023-05-10T08:34:31;17.80;96.30
7232;DHT22;3657;49.630;11.018;2023-05-10T08:36:59;17.70;96.40
7232;DHT22;3657;49.630;11.018;2023-05-10T08:39:25;17.70;96.10
7232;DHT22;3657;49.630;11.018;2023-05-10T08:41:54;17.80;96.30
7232;DHT22;3657;49.630;11.018;2023-05-10T08:44:25;17.80;96.20
7232;DHT22;3657;49.630;11.018;2023-05-10T08:46:53;17.80;96.20
7232;DHT22;3657;49.630;11.018;2023-05-10T08:49:20;17.90;96.70
7232;DHT22;3657;49.630;11.018;2023-05-10T08:51:51;17.90;96.00
7232;DHT22;3657;49.630;11.018;2023-05-10T08:54:22;17.90;96.10
7232;DHT22;3657;49.630;11.018;2023-05-10T08:56:49;17.90;96.20
7232;DHT22;3657;49.630;11.018;2023-05-10T08:59:16;17.90;96.40
7232;DHT22;3657;49.630;11.018;2023-05-10T09:01:44;17.80;96.60
7232;DHT22;3657;49.630;11.018;2023-05-10T09:04:12;17.80;96.70
7232;DHT22;3657;49.630;11.018;2023-05-10T09:06:39;17.70;96.70
7232;DHT22;3657;49.630;11.018;2023-05-10T09:09:06;17.70;97.10
7232;DHT22;3657;49.630;11.018;2023-05-10T09:11:34;17.70;97.00
7232;DHT22;3657;49.630;11.018;2023-05-10T09:14:01;17.70;97.10
7232;DHT22;3657;49.630;11.018;2023-05-10T09:16:28;17.70;97.30
7232;DHT22;3657;49.630;11.018;2023-05-10T09:18:56;17.80;97.30
7232;DHT22;3657;49.630;11.018;2023-05-10T09:21:22;17.90;97.10
7232;DHT22;3657;49.630;11.018;2023-05-10T09:23:49;18.00;96.90
7232;DHT22;3657;49.630;11.018;2023-05-10T09:26:16;18.10;97.10
7232;DHT22;3657;49.630;11.018;2023-05-10T09:28:55;18.10;96.90
7232;DHT22;3657;49.630;11.018;2023-05-10T09:31:22;18.30;96.90
7232;DHT22;3657;49.630;11.018;2023-05-10T09:33:50;18.40;97.00
7232;DHT22;3657;49.630;11.018;2023-05-10T09:36:17;18.50;96.90
7232;DHT22;3657;49.630;11.018;2023-05-10T09:38:48;18.60;96.60
7232;DHT22;3657;49.630;11.018;2023-05-10T09:41:18;18.80;96.70
7232;DHT22;3657;49.630;11.018;2023-05-10T09:43:46;18.90;96.60
7232;DHT22;3657;49.630;11.018;2023-05-10T09:46:15;18.90;96.60
7232;DHT22;3657;49.630;11.018;2023-05-10T09:48:43;18.90;96.80
7232;DHT22;3657;49.630;11.018;2023-05-10T09:51:10;18.90;97.20
7232;DHT22;3657;49.630;11.018;2023-05-10T09:53:37;18.90;96.80
7232;DHT22;3657;49.630;11.018;2023-05-10T09:56:04;19.00;96.70
7232;DHT22;3657;49.630;11.018;2023-05-10T09:58:30;18.90;96.70
7232;DHT22;3657;49.630;11.018;2023-05-10T10:00:57;18.90;96.70
7232;DHT22;3657;49.630;11.018;2023-05-10T10:03:25;18.80;97.50
7232;DHT22;3657;49.630;11.018;2023-05-10T10:05:52;18.80;97.40
7232;DHT22;3657;49.630;11.018;2023-05-10T10:08:21;19.00;97.10
7232;DHT22;3657;49.630;11.018;2023-05-10T10:10:49;19.30;96.80
7232;DHT22;3657;49.630;11.018;2023-05-10T10:13:16;19.70;96.80
7232;DHT22;3657;49.630;11.018;2023-05-10T10:15:43;20.10;96.10
7232;DHT22;3657;49.630;11.018;2023-05-10T10:18:13;20.40;95.90
7232;DHT22;3657;49.630;11.018;2023-05-10T10:20:42;20.40;94.50
7232;DHT22;3657;49.630;11.018;2023-05-10T10:23:08;20.30;95.00
7232;DHT22;3657;49.630;11.018;2023-05-10T10:25:35;20.30;95.50
7232;DHT22;3657;49.630;11.018;2023-05-10T10:28:23;20.50;95.80
7232;DHT22;3657;49.630;11.018;2023-05-10T10:30:52;20.80;95.20
7232;DHT22;3657;49.630;11.018;2023-05-10T10:33:39;20.90;95.40
7232;DHT22;3657;49.630;11.018;2023-05-10T10:36:07;20.90;95.50
7232;DHT22;3657;49.630;11.018;2023-05-10T10:38:54;20.90;95.70
7232;DHT22;3657;49.630;11.018;2023-05-10T10:41:32;20.90;96.00
7232;DHT22;3657;49.630;11.018;2023-05-10T10:44:34;20.80;95.50
7232;DHT22;3657;49.630;11.018;2023-05-10T10:47:04;20.70;95.90
7232;DHT22;3657;49.630;11.018;2023-05-10T10:49:37;20.60;94.30
7232;DHT22;3657;49.630;11.018;2023-05-10T10:52:24;20.60;95.70
7232;DHT22;3657;49.630;11.018;2023-05-10T10:54:58;20.50;94.60
7232;DHT22;3657;49.630;11.018;2023-05-10T10:57:26;20.50;95.90
7232;DHT22;3657;49.630;11.018;2023-05-10T11:00:18;20.60;95.90
7232;DHT22;3657;49.630;11.018;2023-05-10T11:02:46;20.70;95.40
7232;DHT22;3657;49.630;11.018;2023-05-10T11:05:44;20.90;95.90
7232;DHT22;3657;49.630;11.018;2023-05-10T11:08:18;20.90;93.60
7232;DHT22;3657;49.630;11.018;2023-05-10T11:10:50;21.10;94.80
7232;DHT22;3657;49.630;11.018;2023-05-10T11:13:27;21.30;95.10
7232;DHT22;3657;49.630;11.018;2023-05-10T11:15:54;21.50;94.90
7232;DHT22;3657;49.630;11.018;2023-05-10T11:18:24;21.70;95.00
7232;DHT22;3657;49.630;11.018;2023-05-10T11:20:51;21.70;94.80
7232;DHT22;3657;49.630;11.018;2023-05-10T11:23:19;21.70;94.90
7232;DHT22;3657;49.630;11.018;2023-05-10T11:25:48;21.70;94.60
7232;DHT22;3657;49.630;11.018;2023-05-10T11:28:17;21.60;94.90
7232;DHT22;3657;49.630;11.018;2023-05-10T11:30:44;21.50;95.30
7232;DHT22;3657;49.630;11.018;2023-05-10T11:33:15;21.50;95.50
7232;DHT22;3657;49.630;11.018;2023-05-10T11:35:43;21.50;95.20
7232;DHT22;3657;49.630;11.018;2023-05-10T11:38:11;21.50;94.90
7232;DHT22;3657;49.630;11.018;2023-05-10T11:40:40;21.50;95.20
7232;DHT22;3657;49.630;11.018;2023-05-10T11:43:08;21.50;95.10
7232;DHT22;3657;49.630;11.018;2023-05-10T11:45:35;21.50;95.00
7232;DHT22;3657;49.630;11.018;2023-05-10T11:48:03;21.50;95.10
7232;DHT22;3657;49.630;11.018;2023-05-10T11:50:30;21.50;95.00
7232;DHT22;3657;49.630;11.018;2023-05-10T11:52:57;21.50;94.90
7232;DHT22;3657;49.630;11.018;2023-05-10T11:55:24;21.50;94.80
7232;DHT22;3657;49.630;11.018;2023-05-10T11:57:55;21.50;94.90
7232;DHT22;3657;49.630;11.018;2023-05-10T12:00:26;21.60;94.70
7232;DHT22;3657;49.630;11.018;2023-05-10T12:02:53;21.60;94.40
7232;DHT22;3657;49.630;11.018;2023-05-10T12:05:19;21.60;94.50
7232;DHT22;3657;49.630;11.018;2023-05-10T12:07:46;21.60;94.40
7232;DHT22;3657;49.630;11.018;2023-05-10T12:10:13;21.60;94.10
7232;DHT22;3657;49.630;11.018;2023-05-10T12:12:42;21.60;94.20
7232;DHT22;3657;49.630;11.018;2023-05-10T12:15:18;21.60;94.00
7232;DHT22;3657;49.630;11.018;2023-05-10T12:17:45;21.60;92.50
7232;DHT22;3657;49.630;11.018;2023-05-10T12:20:15;21.60;93.00
7232;DHT22;3657;49.630;11.018;2023-05-10T12:22:45;21.60;93.80
7232;DHT22;3657;49.630;11.018;2023-05-10T12:25:12;21.60;94.00
7232;DHT22;3657;49.630;11.018;2023-05-10T12:27:38;21.70;93.70
7232;DHT22;3657;49.630;11.018;2023-05-10T12:30:06;21.60;93.70
7232;DHT22;3657;49.630;11.018;2023-05-10T12:32:41;21.60;93.60
7232;DHT22;3657;49.630;11.018;2023-05-10T12:35:08;21.60;93.60
7232;DHT22;3657;49.630;11.018;2023-05-10T12:37:35;21.60;93.50
7232;DHT22;3657;49.630;11.018;2023-05-10T12:40:06;21.60;93.40
7232;DHT22;3657;49.630;11.018;2023-05-10T12:42:34;21.50;93.40
7232;DHT22;3657;49.630;11.018;2023-05-10T12:45:01;21.50;93.20
7232;DHT22;3657;49.630;11.018;2023-05-10T12:47:28;21.50;93.70
7232;DHT22;3657;49.630;11.018;2023-05-10T12:49:56;21.50;93.80
7232;DHT22;3657;49.630;11.018;2023-05-10T12:52:23;21.50;93.60
7232;DHT22;3657;49.630;11.018;2023-05-10T12:54:50;21.50;93.60
7232;DHT22;3657;49.630;11.018;2023-05-10T12:57:17;21.50;93.80
7232;DHT22;3657;49.630;11.018;2023-05-10T12:59:43;21.60;93.80
7232;DHT22;3657;49.630;11.018;2023-05-10T13:02:10;21.60;93.50
7232;DHT22;3657;49.630;11.018;2023-05-10T13:04:37;21.60;93.60
7232;DHT22;3657;49.630;11.018;2023-05-10T13:07:06;21.60;93.90
7232;DHT22;3657;49.630;11.018;2023-05-10T13:09:33;21.60;93.50
7232;DHT22;3657;49.630;11.018;2023-05-10T13:12:00;21.60;93.70
7232;DHT22;3657;49.630;11.018;2023-05-10T13:14:26;21.60;93.60
7232;DHT22;3657;49.630;11.018;2023-05-10T13:16:53;21.60;93.60
7232;DHT22;3657;49.630;11.018;2023-05-10T13:19:20;21.60;93.50
7232;DHT22;3657;49.630;11.018;2023-05-10T13:21:47;21.50;93.60
7232;DHT22;3657;49.630;11.018;2023-05-10T13:24:15;21.50;93.80
7232;DHT22;3657;49.630;11.018;2023-05-10T13:26:42;21.50;94.10
7232;DHT22;3657;49.630;11.018;2023-05-10T13:29:09;21.50;94.50
7232;DHT22;3657;49.630;11.018;2023-05-10T13:31:35;21.50;94.70
7232;DHT22;3657;49.630;11.018;2023-05-10T13:34:03;21.50;94.80
7232;DHT22;3657;49.630;11.018;2023-05-10T13:36:29;21.40;95.10
7232;DHT22;3657;49.630;11.018;2023-05-10T13:38:56;21.40;95.10
7232;DHT22;3657;49.630;11.018;2023-05-10T13:41:24;21.40;95.30
7232;DHT22;3657;49.630;11.018;2023-05-10T13:43:51;21.30;95.60
7232;DHT22;3657;49.630;11.018;2023-05-10T13:46:18;21.30;95.70
7232;DHT22;3657;49.630;11.018;2023-05-10T13:48:45;21.30;96.20
7232;DHT22;3657;49.630;11.018;2023-05-10T13:51:11;21.30;96.40
7232;DHT22;3657;49.630;11.018;2023-05-10T13:53:38;21.30;96.50
7232;DHT22;3657;49.630;11.018;2023-05-10T13:56:05;21.20;96.90
7232;DHT22;3657;49.630;11.018;2023-05-10T13:58:33;21.20;96.50
7232;DHT22;3657;49.630;11.018;2023-05-10T14:01:01;21.20;96.60
7232;DHT22;3657;49.630;11.018;2023-05-10T14:03:27;21.10;96.70
7232;DHT22;3657;49.630;11.018;2023-05-10T14:05:54;21.10;97.90
7232;DHT22;3657;49.630;11.018;2023-05-10T14:08:21;21.10;97.70
7232;DHT22;3657;49.630;11.018;2023-05-10T14:10:48;21.10;98.10
7232;DHT22;3657;49.630;11.018;2023-05-10T14:13:16;21.10;97.80
7232;DHT22;3657;49.630;11.018;2023-05-10T14:15:44;21.00;96.90
7232;DHT22;3657;49.630;11.018;2023-05-10T14:18:10;21.00;96.70
7232;DHT22;3657;49.630;11.018;2023-05-10T14:20:37;20.90;97.10
7232;DHT22;3657;49.630;11.018;2023-05-10T14:23:04;20.90;97.00
7232;DHT22;3657;49.630;11.018;2023-05-10T14:25:30;20.80;96.70
7232;DHT22;3657;49.630;11.018;2023-05-10T14:27:58;20.70;96.90
7232;DHT22;3657;49.630;11.018;2023-05-10T14:30:25;20.70;96.80
7232;DHT22;3657;49.630;11.018;2023-05-10T14:32:53;20.70;96.90
7232;DHT22;3657;49.630;11.018;2023-05-10T14:35:20;20.60;97.10
7232;DHT22;3657;49.630;11.018;2023-05-10T14:37:47;20.60;96.80
7232;DHT22;3657;49.630;11.018;2023-05-10T14:40:14;20.50;97.00
7232;DHT22;3657;49.630;11.018;2023-05-10T14:42:42;20.50;97.10
7232;DHT22;3657;49.630;11.018;2023-05-10T14:45:10;20.50;97.10
7232;DHT22;3657;49.630;11.018;2023-05-10T14:47:37;20.40;97.30
7232;DHT22;3657;49.630;11.018;2023-05-10T14:50:06;20.40;97.40
7232;DHT22;3657;49.630;11.018;2023-05-10T14:52:33;20.40;97.10
7232;DHT22;3657;49.630;11.018;2023-05-10T14:55:00;20.30;96.90
7232;DHT22;3657;49.630;11.018;2023-05-10T14:57:26;20.30;96.90
7232;DHT22;3657;49.630;11.018;2023-05-10T14:59:54;20.30;96.60
7232;DHT22;3657;49.630;11.018;2023-05-10T15:02:21;20.20;96.40
7232;DHT22;3657;49.630;11.018;2023-05-10T15:04:48;20.10;95.70
7232;DHT22;3657;49.630;11.018;2023-05-10T15:07:16;19.90;95.50
7232;DHT22;3657;49.630;11.018;2023-05-10T15:09:43;19.70;95.80
7232;DHT22;3657;49.630;11.018;2023-05-10T15:12:10;19.70;96.50
7232;DHT22;3657;49.630;11.018;2023-05-10T15:14:37;19.60;96.40
7232;DHT22;3657;49.630;11.018;2023-05-10T15:17:06;19.60;96.40
7232;DHT22;3657;49.630;11.018;2023-05-10T15:19:33;19.60;96.70
7232;DHT22;3657;49.630;11.018;2023-05-10T15:21:59;19.60;96.60
7232;DHT22;3657;49.630;11.018;2023-05-10T15:24:28;19.60;96.50
7232;DHT22;3657;49.630;11.018;2023-05-10T15:26:54;19.60;96.50
7232;DHT22;3657;49.630;11.018;2023-05-10T15:29:21;19.60;96.40
7232;DHT22;3657;49.630;11.018;2023-05-10T15:31:48;19.60;96.20
7232;DHT22;3657;49.630;11.018;2023-05-10T15:34:15;19.50;96.30
7232;DHT22;3657;49.630;11.018;2023-05-10T15:36:42;19.50;96.20
7232;DHT22;3657;49.630;11.018;2023-05-10T15:39:10;19.40;96.20
7232;DHT22;3657;49.630;11.018;2023-05-10T15:41:38;19.40;96.10
7232;DHT22;3657;49.630;11.018;2023-05-10T15:44:05;19.40;96.00
7232;DHT22;3657;49.630;11.018;2023-05-10T15:46:32;19.30;95.90
7232;DHT22;3657;49.630;11.018;2023-05-10T15:48:59;19.30;95.90
7232;DHT22;3657;49.630;11.018;2023-05-10T15:51:25;19.20;95.70
7232;DHT22;3657;49.630;11.018;2023-05-10T15:53:52;19.20;95.90
7232;DHT22;3657;49.630;11.018;2023-05-10T15:56:19;19.20;95.60